createdAt,value
2022-11-12T00:01:10.087Z,53.82911
2022-11-12T00:06:11.825Z,54.38856
2022-11-12T00:11:13.469Z,55.30654
2022-11-12T00:16:15.229Z,55.41191
2022-11-12T00:21:17.021Z,55.38323
2022-11-12T00:26:18.639Z,54.2889
2022-11-12T00:31:20.383Z,54.41846
2022-11-12T00:36:22.060Z,55.7176
2022-11-12T00:41:23.714Z,57.58618
2022-11-12T00:46:25.364Z,57.22374
2022-11-12T00:51:27.021Z,56.56224
2022-11-12T00:56:32.986Z,55.99552
2022-11-12T01:01:37.107Z,55.96796
2022-11-12T01:06:39.070Z,56.99771
2022-11-12T01:11:40.831Z,55.93304
2022-11-12T01:16:42.588Z,58.29748
2022-11-12T01:21:44.510Z,56.68322
2022-11-12T01:26:46.249Z,55.89507
2022-11-12T01:31:47.849Z,55.38715
2022-11-12T01:36:49.450Z,54.76062
2022-11-12T01:41:51.135Z,54.17342
2022-11-12T01:46:52.798Z,54.9755
2022-11-12T01:51:54.434Z,54.81581
2022-11-12T01:56:56.160Z,55.00657
2022-11-12T02:01:57.826Z,54.84165
2022-11-12T02:06:59.564Z,55.73926
2022-11-12T02:12:01.286Z,54.06707
2022-11-12T02:17:02.996Z,55.38529
2022-11-12T02:22:04.630Z,56.05714
2022-11-12T02:27:06.314Z,55.40313
2022-11-12T02:32:07.990Z,56.10226
2022-11-12T02:37:09.621Z,56.68123
2022-11-12T02:42:11.219Z,57.4505
2022-11-12T02:47:12.944Z,56.3327
2022-11-12T02:52:14.542Z,56.80957
2022-11-12T02:57:16.116Z,58.87965
2022-11-12T03:02:17.836Z,57.36857
2022-11-12T03:07:19.592Z,56.47989
2022-11-12T03:12:21.225Z,56.58085
2022-11-12T03:17:22.893Z,57.80359
2022-11-12T03:22:24.552Z,55.76157
2022-11-12T03:27:26.231Z,56.72869
2022-11-12T03:32:27.970Z,56.97656
2022-11-12T03:37:29.602Z,57.14218
2022-11-12T03:42:31.236Z,57.63991
2022-11-12T03:47:32.987Z,58.22012
2022-11-12T03:52:34.650Z,56.20132
2022-11-12T03:57:36.306Z,57.1454
2022-11-12T04:02:37.984Z,56.54244
2022-11-12T04:07:39.671Z,57.4855
2022-11-12T04:12:41.284Z,58.35508
2022-11-12T04:17:43.031Z,59.5452
2022-11-12T04:22:44.688Z,59.29314
2022-11-12T04:27:46.435Z,57.89943
2022-11-12T04:32:48.172Z,56.82776
2022-11-12T04:37:49.923Z,56.20866
2022-11-12T04:42:51.559Z,57.06104
2022-11-12T04:47:53.239Z,59.4714
2022-11-12T04:52:54.896Z,59.85165
2022-11-12T04:58:00.576Z,60.81968
2022-11-12T05:03:02.810Z,60.09678
2022-11-12T05:08:04.424Z,57.83241
2022-11-12T05:13:06.142Z,58.34354
2022-11-12T05:18:08.111Z,59.66205
2022-11-12T05:23:09.868Z,59.01963
2022-11-12T05:28:11.561Z,59.82591
2022-11-12T05:33:13.217Z,60.05374
2022-11-12T05:38:14.891Z,58.29266
2022-11-12T05:43:16.541Z,58.87466
2022-11-12T05:48:23.993Z,57.1474
2022-11-12T05:53:26.463Z,56.33027
2022-11-12T05:58:28.471Z,57.28554
2022-11-12T06:03:30.305Z,58.02829
2022-11-12T06:08:32.012Z,57.11952
2022-11-12T06:13:33.663Z,56.66645
2022-11-12T06:18:35.607Z,56.7666
2022-11-12T06:23:37.281Z,56.76755
2022-11-12T06:28:39.056Z,58.10086
2022-11-12T06:33:40.793Z,57.50587
2022-11-12T06:38:42.451Z,58.76351
2022-11-12T06:43:44.211Z,58.33967
2022-11-12T06:48:45.876Z,57.74764
2022-11-12T06:53:47.564Z,58.01404
2022-11-12T06:58:49.354Z,56.48305
2022-11-12T07:03:51.197Z,57.58577
2022-11-12T07:08:52.855Z,58.89503
2022-11-12T07:13:54.526Z,59.06522
2022-11-12T07:18:56.114Z,57.87513
2022-11-12T07:23:58.007Z,57.04311
2022-11-12T07:28:59.603Z,57.77322
2022-11-12T07:34:01.315Z,58.05884
2022-11-12T07:39:02.988Z,59.03726
2022-11-12T07:44:04.637Z,58.93146
2022-11-12T07:49:06.484Z,60.48325
2022-11-12T07:54:08.169Z,57.78522
2022-11-12T07:59:09.833Z,58.17557
2022-11-12T08:04:11.491Z,58.65017
2022-11-12T08:09:13.288Z,57.48089
2022-11-12T08:14:15.323Z,58.80037
2022-11-12T08:19:17.259Z,59.44563
2022-11-12T08:24:19.232Z,58.59655
2022-11-12T08:29:20.997Z,57.72826
2022-11-12T08:34:23.004Z,57.22522
2022-11-12T08:39:24.835Z,56.84582
2022-11-12T08:44:26.534Z,55.43665
2022-11-12T08:49:28.195Z,56.43504
2022-11-12T08:54:30.047Z,56.68863
2022-11-12T08:59:31.966Z,56.18748
2022-11-12T09:04:33.621Z,56.50933
2022-11-12T09:09:35.301Z,55.23042
2022-11-12T09:14:36.914Z,54.36091
2022-11-12T09:19:42.699Z,55.99578
2022-11-12T09:24:44.752Z,57.39904
2022-11-12T09:29:46.458Z,59.16629
2022-11-12T09:34:48.174Z,59.19163
2022-11-12T09:39:49.856Z,58.74616
2022-11-12T09:44:51.519Z,55.63727
2022-11-12T09:49:53.190Z,54.59178
2022-11-12T09:54:55.059Z,55.62832
2022-11-12T09:59:56.716Z,59.3698
2022-11-12T10:04:58.348Z,59.94299
2022-11-12T10:10:00.148Z,59.4491
2022-11-12T10:15:01.796Z,60.81792
2022-11-12T10:20:04.474Z,61.35739
2022-11-12T10:25:06.042Z,59.03504
2022-11-12T10:30:08.644Z,57.21388
2022-11-12T10:35:10.261Z,60.61995
2022-11-12T10:40:11.874Z,58.4904
2022-11-12T10:45:13.629Z,57.08741
2022-11-12T10:50:15.274Z,55.04295
2022-11-12T10:55:16.968Z,56.27042
2022-11-12T11:00:18.660Z,57.41272
2022-11-12T11:05:20.294Z,57.52286
2022-11-12T11:10:21.965Z,58.80797
2022-11-12T11:15:23.654Z,58.09644
2022-11-12T11:20:25.279Z,57.50451
2022-11-12T11:25:26.938Z,58.21009
2022-11-12T11:30:28.599Z,59.82658
2022-11-12T11:35:30.196Z,57.9141
2022-11-12T11:40:31.761Z,57.27481
2022-11-12T11:45:33.419Z,58.35468
2022-11-12T11:50:35.091Z,58.5611
2022-11-12T11:55:36.742Z,57.98956
2022-11-12T12:00:38.368Z,61.03961
2022-11-12T12:05:39.993Z,63.54619
2022-11-12T12:11:06.320Z,61.81436
2022-11-12T12:16:09.832Z,59.08874
2022-11-12T12:21:11.485Z,60.04171
2022-11-12T12:26:13.331Z,60.70559
2022-11-12T12:31:15.578Z,60.83937
2022-11-12T12:36:17.312Z,61.67274
2022-11-12T12:41:19.017Z,63.10582
2022-11-12T12:46:20.744Z,61.7837
2022-11-12T12:51:22.619Z,60.80478
2022-11-12T12:56:24.501Z,59.12781
2022-11-12T13:01:26.151Z,60.18497
2022-11-12T13:06:28.023Z,60.07694
2022-11-12T13:11:29.787Z,63.04573
2022-11-12T13:16:31.462Z,64.89326
2022-11-12T13:21:33.104Z,62.91758
2022-11-12T13:26:34.692Z,60.76273
2022-11-12T13:31:36.267Z,59.07868
2022-11-12T13:36:38.186Z,59.35605
2022-11-12T13:41:39.844Z,58.83974
2022-11-12T13:46:41.457Z,60.69876
2022-11-12T13:51:43.057Z,59.29618
2022-11-12T13:56:45.190Z,57.97531
2022-11-12T14:01:46.807Z,57.1916
2022-11-12T14:06:48.448Z,57.24697
2022-11-12T14:11:50.161Z,57.04564
2022-11-12T14:16:51.862Z,58.4509
2022-11-12T14:21:53.543Z,58.39351
2022-11-12T14:26:55.279Z,58.34825
2022-11-12T14:31:56.949Z,58.8908
2022-11-12T14:36:58.792Z,58.80884
2022-11-12T14:42:00.589Z,58.42524
2022-11-12T14:47:02.254Z,60.45745
2022-11-12T14:52:03.863Z,58.75513
2022-11-12T14:57:05.464Z,57.71601
2022-11-12T15:02:31.687Z,58.32358
2022-11-12T15:07:39.399Z,56.69247
2022-11-12T15:12:41.258Z,56.22975
2022-11-12T15:17:43.551Z,58.0718
2022-11-12T15:22:45.156Z,60.63915
2022-11-12T15:27:46.914Z,61.10572
2022-11-12T15:32:48.569Z,61.38245
2022-11-12T15:37:50.275Z,59.96903
2022-11-12T15:42:51.998Z,57.51364
2022-11-12T15:47:53.765Z,58.1525
2022-11-12T15:52:55.362Z,58.61136
2022-11-12T15:57:56.969Z,59.34497
2022-11-12T16:02:58.704Z,58.35119
2022-11-12T16:08:00.376Z,59.45646
2022-11-12T16:13:02.062Z,58.89187
2022-11-12T16:18:03.642Z,58.07605
2022-11-12T16:23:05.281Z,57.27237
2022-11-12T16:28:06.983Z,55.86332
2022-11-12T16:33:08.604Z,56.17777
2022-11-12T16:38:10.291Z,55.27775
2022-11-12T16:43:11.882Z,56.46706
2022-11-12T16:48:13.437Z,57.43824
2022-11-12T16:53:15.046Z,56.70883
2022-11-12T16:58:16.780Z,57.12878
2022-11-12T17:03:18.668Z,56.0214
2022-11-12T17:08:20.287Z,55.3769
2022-11-12T17:13:21.920Z,54.61593
2022-11-12T17:18:23.570Z,53.40609
2022-11-12T17:23:25.557Z,55.32882
2022-11-12T17:28:27.433Z,55.54068
2022-11-12T17:33:29.442Z,56.32994
2022-11-12T17:38:31.281Z,55.43247
2022-11-12T17:43:32.899Z,54.74719
2022-11-12T17:48:34.488Z,54.52523
2022-11-12T17:53:36.101Z,54.37307
2022-11-12T17:58:37.884Z,55.4843
2022-11-12T18:03:39.479Z,56.85908
2022-11-12T18:08:41.113Z,54.64056
2022-11-12T18:13:42.733Z,54.21901
2022-11-12T18:18:44.336Z,53.06352
2022-11-12T18:23:45.998Z,52.87524
2022-11-12T18:28:47.631Z,55.82574
2022-11-12T18:33:49.404Z,55.50953
2022-11-12T18:38:51.059Z,54.4442
2022-11-12T18:43:52.737Z,56.21587
2022-11-12T18:48:54.365Z,52.49018
2022-11-12T18:53:56.127Z,52.96621
2022-11-12T18:58:57.748Z,50.90186
2022-11-12T19:03:59.395Z,48.69636
2022-11-12T19:09:01.073Z,49.27671
2022-11-12T19:14:02.692Z,48.82575
2022-11-12T19:19:04.400Z,50.67751
2022-11-12T19:24:06.022Z,49.56251
2022-11-12T19:29:07.867Z,49.44461
2022-11-12T19:34:09.494Z,48.71357
2022-11-12T19:39:11.150Z,49.69475
2022-11-12T19:44:12.775Z,49.08891
2022-11-12T19:49:14.385Z,46.98222
2022-11-12T19:54:16.080Z,48.56441
2022-11-12T19:59:17.692Z,46.87574
2022-11-12T20:04:24.030Z,46.86956
2022-11-12T20:09:26.288Z,45.95108
2022-11-12T20:14:27.986Z,46.89246
2022-11-12T20:19:29.675Z,46.09759
2022-11-12T20:24:31.414Z,46.55112
2022-11-12T20:29:33.097Z,48.53045
2022-11-12T20:34:35.997Z,49.23368
2022-11-12T20:39:37.625Z,47.97903
2022-11-12T20:44:39.240Z,48.80839
2022-11-12T20:49:40.849Z,48.07841
2022-11-12T20:54:42.510Z,48.84771
2022-11-12T20:59:44.195Z,48.49458
2022-11-12T21:04:45.811Z,48.83689
2022-11-12T21:09:47.715Z,49.07361
2022-11-12T21:14:50.590Z,49.63645
2022-11-12T21:19:53.044Z,48.86915
2022-11-12T21:24:54.679Z,49.23243
2022-11-12T21:29:56.357Z,49.43363
2022-11-12T21:34:58.013Z,50.27494
2022-11-12T21:39:59.679Z,49.59498
2022-11-12T21:45:01.645Z,51.27521
2022-11-12T21:50:03.337Z,50.62142
2022-11-12T21:55:05.114Z,50.66906
2022-11-12T22:00:39.282Z,50.61695
2022-11-12T22:05:42.603Z,51.91429
2022-11-12T22:10:44.454Z,50.56935
2022-11-12T22:15:46.215Z,51.38028
2022-11-12T22:20:48.065Z,50.8148
2022-11-12T22:25:49.892Z,51.58439
2022-11-12T22:30:51.518Z,52.61864
2022-11-12T22:35:53.285Z,54.08054
2022-11-12T22:40:55.090Z,52.2493
2022-11-12T22:45:56.782Z,51.75797
2022-11-12T22:50:58.670Z,54.76791
2022-11-12T22:56:00.378Z,55.13407
2022-11-12T23:01:02.077Z,53.68368
2022-11-12T23:06:03.802Z,55.03323
2022-11-12T23:11:07.139Z,53.6348
2022-11-12T23:16:08.873Z,52.16095
2022-11-12T23:21:10.886Z,52.30531
2022-11-12T23:26:12.773Z,52.39902
2022-11-12T23:31:14.488Z,53.10939
2022-11-12T23:36:16.110Z,51.73426
2022-11-12T23:41:17.800Z,54.62211
2022-11-12T23:46:19.536Z,54.20717
2022-11-12T23:51:21.168Z,53.81474
2022-11-12T23:56:23.655Z,53.33178
